Time;durP1;ratioP1;P1;durP2;ratioP2;P2;SDS_P1;SDS_P2;PMS_P1;PMS_P2;Temp;Humidity;BMP_temperature;BMP_pressure;BME280_temperature;BME280_humidity;BME280_pressure;Samples;Min_cycle;Max_cycle;Signal;HPM_P1;HPM_P2
2023/11/18 00:01:52;;;;;;;0.45;0.45;;;;;;;-145.01;100.00;64805.59;4905555;29;20052;-58
2023/11/18 00:04:19;;;;;;;0.60;0.60;;;;;;;-145.01;100.00;64805.59;4899437;29;20052;-59
2023/11/18 00:06:47;;;;;;;0.60;0.60;;;;;;;-145.01;100.00;64805.59;4900929;29;20063;-59
2023/11/18 00:09:27;;;;;;;0.57;0.57;;;;;;;1.45;100.00;100159.13;5109968;27;20400;-59
2023/11/18 00:11:54;;;;;;;0.52;0.52;;;;;;;1.43;100.00;100159.28;5117524;27;20091;-59
2023/11/18 00:14:21;;;;;;;0.60;0.60;;;;;;;1.41;100.00;100158.59;5111719;27;20062;-59
2023/11/18 00:16:48;;;;;;;0.60;0.60;;;;;;;1.70;100.00;100152.91;5111471;27;20126;-59
2023/11/18 00:19:15;;;;;;;0.50;0.50;;;;;;;2.01;100.00;100154.94;5115837;27;20051;-59
2023/11/18 00:21:44;;;;;;;0.60;0.60;;;;;;;1.86;100.00;100157.38;5112899;27;20146;-59
2023/11/18 00:24:11;;;;;;;0.60;0.60;;;;;;;1.82;100.00;100156.06;5118649;27;20120;-60
2023/11/18 00:26:39;;;;;;;0.60;0.60;;;;;;;1.78;100.00;100156.56;5117136;27;20135;-59
2023/11/18 00:29:05;;;;;;;0.60;0.60;;;;;;;1.70;100.00;100149.44;5111975;27;20139;-59
2023/11/18 00:31:32;;;;;;;0.57;0.57;;;;;;;1.58;100.00;100163.94;5113889;27;20082;-60
2023/11/18 00:33:59;;;;;;;0.60;0.60;;;;;;;1.63;100.00;100166.94;5116504;27;20160;-58
2023/11/18 00:36:26;;;;;;;0.60;0.60;;;;;;;1.69;100.00;100161.00;5115900;27;20226;-58
2023/11/18 00:38:55;;;;;;;0.57;0.57;;;;;;;1.66;100.00;100161.31;5116828;27;20050;-58
2023/11/18 00:41:22;;;;;;;0.55;0.55;;;;;;;1.53;100.00;100171.53;5112020;27;20044;-60
2023/11/18 00:43:52;;;;;;;0.50;0.50;;;;;;;1.39;100.00;100160.56;5112214;28;20560;-60
2023/11/18 00:46:20;;;;;;;0.47;0.47;;;;;;;1.06;100.00;100165.72;5115673;27;20123;-59
2023/11/18 00:48:47;;;;;;;0.50;0.50;;;;;;;1.06;100.00;100159.63;5114575;27;20571;-59
2023/11/18 00:51:14;;;;;;;0.60;0.60;;;;;;;1.26;100.00;100160.22;5114874;27;20364;-60
2023/11/18 00:53:41;;;;;;;0.50;0.50;;;;;;;1.40;100.00;100164.88;5113526;27;20418;-59
2023/11/18 00:56:11;;;;;;;0.50;0.50;;;;;;;1.46;100.00;100161.59;5097114;28;20039;-59
2023/11/18 00:58:40;;;;;;;0.60;0.60;;;;;;;1.51;100.00;100158.47;5112518;27;20048;-59
2023/11/18 01:01:08;;;;;;;0.70;0.70;;;;;;;1.69;100.00;100161.81;5109761;27;20047;-59
2023/11/18 01:03:35;;;;;;;0.70;0.70;;;;;;;1.70;100.00;100152.91;5115338;27;20124;-59
2023/11/18 01:06:03;;;;;;;0.70;0.70;;;;;;;1.69;100.00;100150.41;5116231;27;20047;-59
2023/11/18 01:08:31;;;;;;;0.60;0.60;;;;;;;1.76;100.00;100151.44;5115017;27;20055;-59
2023/11/18 01:10:58;;;;;;;0.60;0.60;;;;;;;1.74;100.00;100153.41;5102477;28;20543;-59
2023/11/18 01:13:26;;;;;;;0.60;0.60;;;;;;;1.61;100.00;100150.41;5107569;27;20068;-60
2023/11/18 01:15:53;;;;;;;0.50;0.50;;;;;;;1.79;100.00;100140.53;5116328;27;20233;-59
2023/11/18 01:18:22;;;;;;;0.50;0.50;;;;;;;1.83;100.00;100144.50;5116441;27;20047;-59
2023/11/18 01:20:49;;;;;;;0.60;0.60;;;;;;;1.78;100.00;100145.97;5097407;28;20043;-59
2023/11/18 01:23:16;;;;;;;0.60;0.60;;;;;;;1.75;100.00;100146.28;5096078;27;20434;-59
2023/11/18 01:25:43;;;;;;;0.70;0.70;;;;;;;1.81;100.00;100154.41;5102196;28;20043;-59
2023/11/18 01:28:09;;;;;;;0.55;0.55;;;;;;;1.87;100.00;100143.19;5100757;28;20058;-59
2023/11/18 01:30:37;;;;;;;0.50;0.50;;;;;;;1.88;100.00;100160.69;5095272;27;20051;-59
2023/11/18 01:33:04;;;;;;;0.50;0.50;;;;;;;1.88;100.00;100166.00;5097937;28;20138;-59
2023/11/18 01:35:33;;;;;;;0.50;0.50;;;;;;;1.71;100.00;100170.41;5098277;28;20055;-59
2023/11/18 01:38:00;;;;;;;0.50;0.50;;;;;;;1.76;100.00;100161.19;5102872;27;20051;-59
2023/11/18 01:40:30;;;;;;;0.60;0.60;;;;;;;1.69;100.00;100158.34;5101030;28;20054;-59
2023/11/18 01:42:57;;;;;;;0.55;0.55;;;;;;;1.66;100.00;100171.88;5095751;28;20079;-59
2023/11/18 01:45:26;;;;;;;0.50;0.50;;;;;;;1.86;100.00;100162.66;5098175;28;20146;-59
2023/11/18 01:47:53;;;;;;;0.50;0.50;;;;;;;2.15;100.00;100164.03;5083480;28;20112;-58
2023/11/18 01:50:20;;;;;;;0.50;0.50;;;;;;;2.00;100.00;100157.72;5100950;27;20043;-59
2023/11/18 01:52:49;;;;;;;0.60;0.60;;;;;;;1.97;100.00;100160.69;5098097;28;20052;-59
2023/11/18 01:55:16;;;;;;;0.52;0.52;;;;;;;1.93;100.00;100155.75;5101581;28;20556;-59
2023/11/18 01:57:45;;;;;;;0.50;0.50;;;;;;;1.86;100.00;100159.22;5101710;27;20070;-59
2023/11/18 02:00:17;;;;;;;0.60;0.60;;;;;;;1.88;100.00;100166.00;5109240;27;20041;-59
2023/11/18 02:02:44;;;;;;;0.60;0.60;;;;;;;1.89;100.00;100170.28;5094166;28;20048;-59
2023/11/18 02:05:12;;;;;;;0.60;0.60;;;;;;;1.85;100.00;100176.88;5094706;28;20125;-59
2023/11/18 02:07:39;;;;;;;0.50;0.50;;;;;;;1.82;100.00;100179.88;5092299;28;20047;-59
2023/11/18 02:10:09;;;;;;;0.50;0.50;;;;;;;1.81;100.00;100180.84;5103721;27;20515;-60
2023/11/18 02:12:40;;;;;;;0.50;0.50;;;;;;;1.78;100.00;100183.00;5100643;28;20055;-59
2023/11/18 02:15:09;;;;;;;0.40;0.40;;;;;;;1.76;100.00;100177.03;5099515;28;20501;-58
2023/11/18 02:17:37;;;;;;;0.60;0.60;;;;;;;1.78;100.00;100173.25;5098940;28;20054;-60
2023/11/18 02:20:13;;;;;;;0.52;0.52;;;;;;;1.79;100.00;100174.06;5100867;28;20665;-60
2023/11/18 02:22:42;;;;;;;0.70;0.70;;;;;;;1.80;100.00;100173.06;5093529;28;20047;-58
2023/11/18 02:25:11;;;;;;;0.50;0.50;;;;;;;1.82;100.00;100174.59;5101339;27;20413;-58
2023/11/18 02:27:39;;;;;;;0.50;0.50;;;;;;;1.69;100.00;100176.84;5110680;27;20539;-60
2023/11/18 02:30:12;;;;;;;0.70;0.70;;;;;;;1.67;100.00;100174.38;5095260;28;20358;-58
2023/11/18 02:32:44;;;;;;;0.70;0.70;;;;;;;1.76;100.00;100183.16;5110317;27;20101;-60
2023/11/18 02:35:16;;;;;;;0.60;0.60;;;;;;;1.88;100.00;100179.19;5100251;28;20667;-58
2023/11/18 02:37:44;;;;;;;0.60;0.60;;;;;;;1.98;100.00;100163.19;5097661;28;20039;-59
2023/11/18 02:40:14;;;;;;;0.60;0.60;;;;;;;1.98;100.00;100162.38;5113546;27;20040;-58
2023/11/18 02:42:43;;;;;;;0.50;0.50;;;;;;;1.98;100.00;100159.72;5110624;27;20044;-58
2023/11/18 02:45:12;;;;;;;0.52;0.52;;;;;;;1.98;100.00;100151.78;5095973;28;20046;-57
2023/11/18 02:47:39;;;;;;;0.63;0.63;;;;;;;2.05;100.00;100156.25;5097656;28;20051;-58
2023/11/18 02:50:10;;;;;;;0.50;0.50;;;;;;;2.12;100.00;100153.75;5094449;28;20043;-58
2023/11/18 02:52:38;;;;;;;0.60;0.60;;;;;;;2.15;100.00;100162.22;5098857;28;20071;-58
2023/11/18 02:55:07;;;;;;;0.60;0.60;;;;;;;2.22;100.00;100156.25;5097085;28;20478;-58
2023/11/18 02:57:34;;;;;;;0.50;0.50;;;;;;;2.20;100.00;100153.78;5099963;28;20571;-58
2023/11/18 03:00:04;;;;;;;0.60;0.60;;;;;;;2.23;100.00;100158.75;5096522;28;20077;-58
2023/11/18 03:02:31;;;;;;;0.47;0.47;;;;;;;2.22;100.00;100150.97;5081313;28;20044;-58
2023/11/18 03:05:01;;;;;;;0.50;0.50;;;;;;;2.25;100.00;100151.47;5098733;28;20051;-58
2023/11/18 03:07:31;;;;;;;0.50;0.50;;;;;;;2.24;100.00;100147.16;5099779;28;20099;-58
2023/11/18 03:09:59;;;;;;;0.43;0.43;;;;;;;2.27;100.00;100144.19;5099940;28;20441;-58
2023/11/18 03:12:27;;;;;;;0.55;0.55;;;;;;;2.37;100.00;100154.59;5101827;28;20075;-58
2023/11/18 03:14:54;;;;;;;0.40;0.40;;;;;;;2.41;100.00;100157.75;5092083;28;20043;-58
2023/11/18 03:17:23;;;;;;;0.45;0.45;;;;;;;2.36;100.00;100153.75;5098300;28;20121;-58
2023/11/18 03:19:51;;;;;;;0.43;0.43;;;;;;;2.29;100.00;100147.47;5099334;28;20043;-58
2023/11/18 03:22:18;;;;;;;0.60;0.60;;;;;;;2.16;100.00;100155.91;5095162;28;20592;-58
2023/11/18 03:24:45;;;;;;;0.47;0.47;;;;;;;2.11;100.00;100150.31;5095162;28;20135;-58
2023/11/18 03:27:12;;;;;;;0.50;0.50;;;;;;;2.03;100.00;100157.41;5096961;28;20404;-58
2023/11/18 03:29:39;;;;;;;0.50;0.50;;;;;;;2.10;100.00;100163.69;5099323;28;20139;-58
2023/11/18 03:32:07;;;;;;;0.52;0.52;;;;;;;2.38;100.00;100158.91;5100461;28;20054;-58
2023/11/18 03:34:36;;;;;;;0.40;0.40;;;;;;;2.42;100.00;100157.59;5099063;28;20059;-59
2023/11/18 03:37:03;;;;;;;0.50;0.50;;;;;;;2.39;100.00;100157.91;5097974;28;20042;-60
2023/11/18 03:39:30;;;;;;;0.60;0.60;;;;;;;2.38;100.00;100157.06;5095025;28;20044;-58
2023/11/18 03:41:58;;;;;;;0.57;0.57;;;;;;;2.31;100.00;100153.44;5092578;28;20651;-58
2023/11/18 03:44:25;;;;;;;0.43;0.43;;;;;;;2.23;100.00;100153.44;5099197;28;20047;-57
2023/11/18 03:46:52;;;;;;;0.60;0.60;;;;;;;2.29;100.00;100142.19;5092380;28;20092;-58
2023/11/18 03:49:19;;;;;;;0.60;0.60;;;;;;;2.33;100.00;100138.22;5097120;28;20134;-59
2023/11/18 03:51:48;;;;;;;0.40;0.40;;;;;;;2.39;100.00;100144.66;5097854;28;20035;-59
2023/11/18 03:54:16;;;;;;;0.60;0.60;;;;;;;2.42;100.00;100143.50;5096083;28;20391;-59
2023/11/18 03:56:43;;;;;;;0.60;0.60;;;;;;;2.35;100.00;100130.97;5096787;28;20062;-59
2023/11/18 03:59:10;;;;;;;0.55;0.55;;;;;;;2.37;100.00;100126.34;5102435;27;20101;-59
2023/11/18 04:01:37;;;;;;;0.57;0.57;;;;;;;2.32;100.00;100122.50;5099918;28;20563;-59
2023/11/18 04:04:05;;;;;;;0.60;0.60;;;;;;;2.33;100.00;100117.06;5099403;28;20050;-59
2023/11/18 04:06:32;;;;;;;0.47;0.47;;;;;;;2.27;100.00;100116.91;5096610;28;20088;-59
2023/11/18 04:09:00;;;;;;;0.60;0.60;;;;;;;2.36;100.00;100119.38;5109877;28;20067;-59
2023/11/18 04:11:28;;;;;;;0.60;0.60;;;;;;;2.63;100.00;100112.06;5100907;28;20050;-59
2023/11/18 04:13:55;;;;;;;0.60;0.60;;;;;;;2.51;100.00;100118.69;5098604;28;20082;-59
2023/11/18 04:16:23;;;;;;;0.50;0.50;;;;;;;2.61;100.00;100129.09;5099624;28;20075;-59
2023/11/18 04:18:50;;;;;;;0.50;0.50;;;;;;;2.72;100.00;100134.88;5097405;28;20040;-59
2023/11/18 04:21:17;;;;;;;0.50;0.50;;;;;;;2.78;100.00;100131.53;5100091;28;20535;-59
2023/11/18 04:23:46;;;;;;;0.40;0.40;;;;;;;2.79;100.00;100135.81;5100283;28;20054;-59
2023/11/18 04:26:15;;;;;;;0.50;0.50;;;;;;;2.85;100.00;100141.47;5100047;27;20447;-59
2023/11/18 04:28:42;;;;;;;0.52;0.52;;;;;;;2.87;100.00;100137.66;5098968;28;20515;-58
2023/11/18 04:31:09;;;;;;;0.50;0.50;;;;;;;2.83;100.00;100132.84;5100146;28;20048;-58
2023/11/18 04:33:40;;;;;;;0.40;0.40;;;;;;;2.88;100.00;100147.22;5093620;28;20035;-58
2023/11/18 04:36:09;;;;;;;0.50;0.50;;;;;;;2.78;100.00;100158.00;5097180;28;20516;-59
2023/11/18 04:38:37;;;;;;;0.30;0.30;;;;;;;2.85;100.00;100152.06;5093699;28;20044;-59
2023/11/18 04:41:04;;;;;;;0.50;0.50;;;;;;;2.61;100.00;100137.03;5100297;28;20093;-59
2023/11/18 04:43:32;;;;;;;0.50;0.50;;;;;;;2.71;100.00;100142.97;5092140;28;20074;-60
2023/11/18 04:46:00;;;;;;;0.47;0.47;;;;;;;2.75;100.00;100137.16;5096274;28;20156;-59
2023/11/18 04:48:27;;;;;;;0.50;0.50;;;;;;;2.77;100.00;100134.34;5099368;28;20067;-59
2023/11/18 04:50:54;;;;;;;0.40;0.40;;;;;;;2.96;100.00;100128.66;5092909;28;20044;-59
2023/11/18 04:53:22;;;;;;;0.47;0.47;;;;;;;3.01;100.00;100133.44;5091528;28;20122;-60
2023/11/18 04:55:49;;;;;;;0.50;0.50;;;;;;;3.03;100.00;100128.81;5080774;28;20043;-60
2023/11/18 04:58:16;;;;;;;0.50;0.50;;;;;;;3.09;100.00;100114.88;5103620;28;20150;-59
2023/11/18 05:00:45;;;;;;;0.55;0.55;;;;;;;3.08;100.00;100118.53;5101387;28;20413;-60
2023/11/18 05:03:12;;;;;;;0.40;0.40;;;;;;;2.98;100.00;100120.56;5102533;28;20039;-59
2023/11/18 05:05:40;;;;;;;0.40;0.40;;;;;;;2.99;100.00;100112.41;5102128;28;20047;-59
2023/11/18 05:08:07;;;;;;;0.50;0.50;;;;;;;3.03;100.00;100107.63;5115178;27;20048;-59
2023/11/18 05:10:35;;;;;;;0.50;0.50;;;;;;;3.04;100.00;100119.84;5101487;28;20156;-59
2023/11/18 05:13:02;;;;;;;0.40;0.40;;;;;;;3.02;100.00;100105.94;5100920;28;20048;-59
2023/11/18 05:15:31;;;;;;;0.40;0.40;;;;;;;3.00;100.00;100103.50;5101411;28;20040;-59
2023/11/18 05:17:59;;;;;;;0.50;0.50;;;;;;;3.02;100.00;100092.72;5102161;28;20985;-59
2023/11/18 05:20:27;;;;;;;0.50;0.50;;;;;;;2.95;100.00;100078.53;5094375;28;20066;-59
2023/11/18 05:22:54;;;;;;;0.50;0.50;;;;;;;2.93;100.00;100091.94;5100449;28;20048;-60
2023/11/18 05:25:21;;;;;;;0.50;0.50;;;;;;;2.95;100.00;100083.81;5096668;28;20079;-60
2023/11/18 05:27:48;;;;;;;0.50;0.50;;;;;;;2.84;100.00;100066.47;5100430;28;20036;-59
2023/11/18 05:30:16;;;;;;;0.50;0.50;;;;;;;3.17;100.00;100069.81;5098755;28;20493;-60
2023/11/18 05:32:43;;;;;;;0.40;0.40;;;;;;;3.45;100.00;100064.03;5096858;28;20055;-59
2023/11/18 05:35:12;;;;;;;0.45;0.45;;;;;;;3.27;100.00;100061.66;5101862;28;20058;-60
2023/11/18 05:37:40;;;;;;;0.60;0.60;;;;;;;3.16;100.00;100073.44;5100461;28;20039;-60
2023/11/18 05:40:15;;;;;;;0.50;0.50;;;;;;;3.09;100.00;100069.03;5099241;28;20160;-60
2023/11/18 05:42:44;;;;;;;0.50;0.50;;;;;;;2.91;100.00;100070.09;5098497;28;20522;-59
2023/11/18 05:45:17;;;;;;;0.40;0.40;;;;;;;2.96;100.00;100074.88;5094707;28;20072;-59
2023/11/18 05:47:44;;;;;;;0.47;0.47;;;;;;;2.87;100.00;100071.44;5099595;28;20043;-59
2023/11/18 05:50:14;;;;;;;0.32;0.32;;;;;;;2.89;100.00;100076.56;5101997;28;20055;-59
2023/11/18 05:52:42;;;;;;;0.50;0.50;;;;;;;2.92;100.00;100073.56;5094760;28;20449;-60
2023/11/18 05:55:12;;;;;;;0.47;0.47;;;;;;;2.95;100.00;100073.25;5102094;28;20036;-60
2023/11/18 05:57:39;;;;;;;0.50;0.50;;;;;;;3.02;100.00;100071.53;5095056;28;20086;-60
2023/11/18 06:00:11;;;;;;;0.52;0.52;;;;;;;3.10;100.00;100066.22;5100231;28;20402;-58
2023/11/18 06:02:41;;;;;;;0.40;0.40;;;;;;;3.07;100.00;100061.25;5096826;28;20158;-58
2023/11/18 06:05:08;;;;;;;0.45;0.45;;;;;;;3.10;100.00;100050.31;5095130;28;20035;-60
2023/11/18 06:07:39;;;;;;;0.50;0.50;;;;;;;3.28;100.00;100042.09;5099709;28;20599;-60
2023/11/18 06:10:08;;;;;;;0.50;0.50;;;;;;;3.40;100.00;100038.03;5101173;28;20101;-60
2023/11/18 06:12:37;;;;;;;0.40;0.40;;;;;;;3.54;100.00;100022.38;5097976;27;20046;-60
2023/11/18 06:15:04;;;;;;;0.40;0.40;;;;;;;3.70;100.00;100024.09;5100702;27;20081;-60
2023/11/18 06:17:32;;;;;;;0.60;0.60;;;;;;;3.52;100.00;100027.88;5097487;28;20043;-59
2023/11/18 06:19:59;;;;;;;0.38;0.38;;;;;;;3.64;100.00;100029.09;5096032;28;20059;-59
2023/11/18 06:22:26;;;;;;;0.50;0.50;;;;;;;3.68;100.00;100030.38;5095069;28;20414;-59
2023/11/18 06:24:55;;;;;;;0.50;0.50;;;;;;;3.83;100.00;100029.59;5096952;28;20066;-59
2023/11/18 06:27:24;;;;;;;0.50;0.50;;;;;;;3.71;100.00;100046.94;5103069;27;20055;-59
2023/11/18 06:29:54;;;;;;;0.45;0.45;;;;;;;3.83;100.00;100045.50;5098161;28;20535;-59
2023/11/18 06:32:21;;;;;;;0.50;0.50;;;;;;;4.03;100.00;100051.97;5101636;28;20472;-59
2023/11/18 06:34:49;;;;;;;0.45;0.45;;;;;;;3.98;100.00;100054.31;5094615;28;20054;-60
2023/11/18 06:37:17;;;;;;;0.50;0.50;;;;;;;3.89;100.00;100055.41;5099716;28;20043;-59
2023/11/18 06:39:47;;;;;;;0.50;0.50;;;;;;;4.10;100.00;100052.06;5092874;28;20047;-60
2023/11/18 06:42:16;;;;;;;0.50;0.50;;;;;;;4.15;100.00;100044.41;5082799;28;20075;-60
2023/11/18 06:44:43;;;;;;;0.50;0.50;;;;;;;4.06;100.00;100030.38;5100463;28;20035;-60
2023/11/18 06:47:12;;;;;;;0.40;0.40;;;;;;;4.05;100.00;100023.44;5096361;28;20136;-59
2023/11/18 06:49:40;;;;;;;0.40;0.40;;;;;;;4.03;100.00;100024.63;5096448;27;20063;-58
2023/11/18 06:52:11;;;;;;;0.40;0.40;;;;;;;3.90;100.00;100027.88;5099020;28;20044;-58
2023/11/18 06:54:38;;;;;;;0.45;0.45;;;;;;;3.96;100.00;100019.19;5097624;28;20382;-59
2023/11/18 06:57:07;;;;;;;0.43;0.43;;;;;;;4.05;100.00;100010.16;5097131;28;20816;-59
2023/11/18 06:59:35;;;;;;;0.50;0.50;;;;;;;4.03;100.00;100012.16;5098243;28;20047;-59
2023/11/18 07:02:05;;;;;;;0.30;0.30;;;;;;;4.10;100.00;100010.44;5099376;28;20508;-58
2023/11/18 07:04:33;;;;;;;0.30;0.30;;;;;;;4.00;100.00;100017.84;5099831;28;20109;-58
2023/11/18 07:07:01;;;;;;;0.40;0.40;;;;;;;4.19;100.00;100024.44;5100982;27;20150;-58
2023/11/18 07:09:32;;;;;;;0.40;0.40;;;;;;;4.13;100.00;100040.28;5094854;28;20067;-58
2023/11/18 07:12:03;;;;;;;0.40;0.40;;;;;;;4.21;100.00;100043.66;5096852;28;20670;-59
2023/11/18 07:14:30;;;;;;;0.40;0.40;;;;;;;4.08;100.00;100054.91;5096838;28;20192;-59
2023/11/18 07:16:59;;;;;;;0.43;0.43;;;;;;;4.18;100.00;100053.81;5094223;28;20625;-59
2023/11/18 07:19:26;;;;;;;0.47;0.47;;;;;;;4.16;100.00;100050.53;5096980;28;20062;-59
2023/11/18 07:21:56;;;;;;;0.38;0.38;;;;;;;4.22;100.00;100055.94;5100146;27;20139;-59
2023/11/18 07:24:23;;;;;;;0.40;0.40;;;;;;;4.24;100.00;100064.56;5096013;28;20040;-59
2023/11/18 07:26:51;;;;;;;0.50;0.50;;;;;;;4.26;100.00;100067.00;5101428;27;20565;-59
2023/11/18 07:29:19;;;;;;;0.40;0.40;;;;;;;4.24;100.00;100063.69;5093898;28;20132;-59
2023/11/18 07:31:46;;;;;;;0.40;0.40;;;;;;;4.31;100.00;100057.50;5096828;28;20047;-59
2023/11/18 07:34:15;;;;;;;0.40;0.40;;;;;;;4.36;100.00;100056.13;5098914;28;20047;-59
2023/11/18 07:36:45;;;;;;;0.40;0.40;;;;;;;4.26;100.00;100056.38;5096773;28;20063;-59
2023/11/18 07:39:15;;;;;;;0.40;0.40;;;;;;;4.35;100.00;100068.59;5099850;28;20048;-59
2023/11/18 07:41:42;;;;;;;0.45;0.45;;;;;;;4.37;100.00;100074.53;5094832;28;20518;-59
2023/11/18 07:44:12;;;;;;;0.50;0.50;;;;;;;4.37;100.00;100073.69;5096910;28;20055;-59
2023/11/18 07:46:42;;;;;;;0.38;0.38;;;;;;;4.36;100.00;100064.91;5098395;28;20075;-59
2023/11/18 07:49:12;;;;;;;0.40;0.40;;;;;;;4.35;100.00;100065.94;5079668;28;20055;-59
2023/11/18 07:51:45;;;;;;;0.30;0.30;;;;;;;4.35;100.00;100068.59;5098366;28;20134;-59
2023/11/18 07:54:12;;;;;;;0.40;0.40;;;;;;;4.50;100.00;100069.41;5094296;28;20315;-59
2023/11/18 07:56:39;;;;;;;0.40;0.40;;;;;;;4.55;100.00;100066.22;5100299;28;20502;-59
2023/11/18 07:59:08;;;;;;;0.50;0.50;;;;;;;4.44;100.00;100064.84;5096357;28;20632;-59
2023/11/18 08:01:35;;;;;;;0.40;0.40;;;;;;;4.49;100.00;100066.94;5097814;28;20104;-59
2023/11/18 08:04:06;;;;;;;0.32;0.32;;;;;;;4.47;100.00;100051.19;5095453;28;20064;-59
2023/11/18 08:06:33;;;;;;;0.40;0.40;;;;;;;4.45;100.00;100055.88;5099060;28;20040;-59
2023/11/18 08:09:04;;;;;;;0.57;0.57;;;;;;;4.44;100.00;100043.63;5101823;28;20104;-59
2023/11/18 08:11:31;;;;;;;0.50;0.50;;;;;;;4.60;100.00;100037.28;5099386;28;20142;-59
2023/11/18 08:13:58;;;;;;;0.60;0.60;;;;;;;4.52;100.00;100037.38;5092609;28;20043;-59
2023/11/18 08:16:27;;;;;;;0.47;0.47;;;;;;;4.61;100.00;100040.75;5102812;28;20123;-59
2023/11/18 08:18:55;;;;;;;0.50;0.50;;;;;;;4.74;100.00;100035.63;5097209;28;20451;-59
2023/11/18 08:21:25;;;;;;;0.40;0.40;;;;;;;4.77;100.00;100037.94;5098866;28;20047;-59
2023/11/18 08:23:53;;;;;;;0.40;0.40;;;;;;;4.91;100.00;100033.59;5097178;28;20051;-59
2023/11/18 08:26:22;;;;;;;0.50;0.50;;;;;;;4.91;100.00;100034.41;5098032;28;20043;-59
2023/11/18 08:28:49;;;;;;;0.30;0.30;;;;;;;4.96;100.00;100034.66;5092878;28;20088;-59
2023/11/18 08:31:17;;;;;;;0.40;0.40;;;;;;;5.04;100.00;100032.91;5104517;28;20128;-58
2023/11/18 08:33:46;;;;;;;0.50;0.50;;;;;;;5.06;100.00;100028.25;5101907;28;20489;-60
2023/11/18 08:36:13;;;;;;;0.40;0.40;;;;;;;5.28;100.00;100040.56;5103330;28;20131;-60
2023/11/18 08:38:44;;;;;;;0.40;0.40;;;;;;;5.13;100.00;100037.13;5099258;28;20048;-59
2023/11/18 08:41:11;;;;;;;;;;;;;;;5.14;100.00;100031.63;5104203;28;20047;-59
2023/11/18 08:43:40;;;;;;;0.50;0.50;;;;;;;5.15;100.00;100030.59;5097376;28;19930;-59
2023/11/18 08:46:08;;;;;;;0.40;0.40;;;;;;;5.33;100.00;100032.84;5104241;28;20050;-59
2023/11/18 08:48:35;;;;;;;0.45;0.45;;;;;;;5.32;100.00;100038.34;5103257;28;20128;-59
2023/11/18 08:51:02;;;;;;;0.40;0.40;;;;;;;5.39;100.00;100040.06;5099989;28;20075;-59
2023/11/18 08:53:29;;;;;;;0.32;0.32;;;;;;;5.17;100.00;100030.44;5100868;28;20051;-59
2023/11/18 08:55:56;;;;;;;0.30;0.30;;;;;;;5.40;100.00;100041.72;5099793;28;20130;-59
2023/11/18 08:58:29;;;;;;;0.40;0.40;;;;;;;5.43;100.00;100032.53;5097476;28;20050;-59
2023/11/18 09:01:05;;;;;;;0.40;0.40;;;;;;;5.27;100.00;100038.91;5093848;28;20070;-58
2023/11/18 09:03:35;;;;;;;0.50;0.50;;;;;;;5.44;100.00;100041.31;5100538;28;20126;-59
2023/11/18 09:06:04;;;;;;;0.40;0.40;;;;;;;5.61;100.00;100048.03;5096399;28;20051;-59
2023/11/18 09:08:34;;;;;;;0.20;0.20;;;;;;;5.58;100.00;100045.78;5103046;28;20914;-58
2023/11/18 09:11:02;;;;;;;0.30;0.30;;;;;;;5.54;100.00;100050.66;5095384;28;20800;-58
2023/11/18 09:13:29;;;;;;;0.30;0.30;;;;;;;5.60;100.00;100033.94;5099103;28;20048;-59
2023/11/18 09:16:00;;;;;;;0.40;0.40;;;;;;;5.70;100.00;100032.78;5099823;28;20052;-59
2023/11/18 09:18:27;;;;;;;0.30;0.30;;;;;;;5.47;100.00;100033.81;5095336;28;20042;-60
2023/11/18 09:20:55;;;;;;;0.50;0.50;;;;;;;5.53;100.00;100029.56;5099971;27;20393;-59
2023/11/18 09:23:25;;;;;;;0.40;0.40;;;;;;;5.45;100.00;100025.19;5096747;28;20142;-60
2023/11/18 09:25:53;;;;;;;0.50;0.50;;;;;;;5.40;100.00;100017.78;5104875;27;20050;-58
2023/11/18 09:28:25;;;;;;;0.30;0.30;;;;;;;5.56;100.00;100018.53;5100178;28;20052;-58
2023/11/18 09:30:56;;;;;;;0.40;0.40;;;;;;;5.57;100.00;100038.81;5102279;27;20500;-59
2023/11/18 09:33:33;;;;;;;0.40;0.40;;;;;;;5.82;100.00;100036.59;5099977;28;20085;-61
2023/11/18 09:36:00;;;;;;;0.30;0.30;;;;;;;5.77;100.00;100041.66;5101456;28;20087;-58
2023/11/18 09:38:31;;;;;;;0.30;0.30;;;;;;;5.86;100.00;100040.50;5098592;27;20121;-60
2023/11/18 09:41:02;;;;;;;0.30;0.30;;;;;;;6.08;100.00;100041.31;5101497;28;20096;-60
2023/11/18 09:43:32;;;;;;;0.30;0.30;;;;;;;6.01;100.00;100040.44;5102684;28;20147;-60
2023/11/18 09:46:04;;;;;;;0.40;0.40;;;;;;;5.92;100.00;100044.25;5100013;28;20092;-59
2023/11/18 09:48:40;;;;;;;0.40;0.40;;;;;;;5.89;100.00;100036.63;5099871;28;20154;-59
2023/11/18 09:51:08;;;;;;;0.30;0.30;;;;;;;5.90;100.00;100024.97;5098887;28;20044;-59
2023/11/18 09:53:37;;;;;;;0.30;0.30;;;;;;;5.86;100.00;100026.38;5101318;28;20051;-59
2023/11/18 09:56:09;;;;;;;0.40;0.40;;;;;;;5.71;100.00;100048.53;5095118;28;20469;-60
2023/11/18 09:58:40;;;;;;;0.30;0.30;;;;;;;6.04;100.00;100040.06;5100837;27;20039;-59
2023/11/18 10:01:13;;;;;;;0.30;0.30;;;;;;;6.16;100.00;100037.69;5102354;28;20138;-59
2023/11/18 10:03:45;;;;;;;0.30;0.30;;;;;;;6.15;100.00;100041.38;5102155;27;20065;-59
2023/11/18 10:06:14;;;;;;;0.40;0.40;;;;;;;6.16;100.00;100027.84;5097900;28;20047;-59
2023/11/18 10:08:45;;;;;;;0.30;0.30;;;;;;;6.02;100.00;100018.16;5098635;28;20047;-59
2023/11/18 10:11:13;;;;;;;0.40;0.40;;;;;;;6.20;100.00;100023.00;5099677;28;20036;-58
2023/11/18 10:13:44;;;;;;;0.40;0.40;;;;;;;6.37;100.00;100023.50;5092750;28;20627;-58
2023/11/18 10:16:11;;;;;;;0.30;0.30;;;;;;;6.21;100.00;100017.44;5090440;28;20051;-58
2023/11/18 10:18:48;;;;;;;0.38;0.38;;;;;;;6.29;100.00;100015.66;5089700;28;20043;-60
2023/11/18 10:21:18;;;;;;;0.30;0.30;;;;;;;6.42;100.00;100015.75;5097363;28;20516;-60
2023/11/18 10:24:00;;;;;;;0.25;0.25;;;;;;;6.43;100.00;100020.06;5096142;28;20167;-59
2023/11/18 10:26:27;;;;;;;0.30;0.30;;;;;;;6.52;100.00;100016.22;5101160;28;20044;-59
2023/11/18 10:28:55;;;;;;;0.30;0.30;;;;;;;6.44;100.00;100014.53;5104513;27;20067;-59
2023/11/18 10:31:25;;;;;;;0.30;0.30;;;;;;;6.36;100.00;100003.22;5100836;28;20075;-59
2023/11/18 10:33:53;;;;;;;0.30;0.30;;;;;;;6.23;100.00;100006.63;5098860;28;20040;-59
2023/11/18 10:36:23;;;;;;;0.30;0.30;;;;;;;6.24;100.00;99998.44;5101735;28;20050;-59
2023/11/18 10:38:51;;;;;;;0.40;0.40;;;;;;;6.34;100.00;99986.59;5099657;28;20039;-59
2023/11/18 10:41:19;;;;;;;0.30;0.30;;;;;;;6.34;100.00;99986.59;5100031;28;20044;-59
2023/11/18 10:43:48;;;;;;;0.40;0.40;;;;;;;6.38;100.00;99993.19;5099895;28;20180;-60
2023/11/18 10:46:15;;;;;;;0.40;0.40;;;;;;;6.48;100.00;99988.31;5099406;28;20220;-59
2023/11/18 10:48:43;;;;;;;0.30;0.30;;;;;;;6.36;100.00;99979.25;5099439;28;20071;-59
2023/11/18 10:51:13;;;;;;;0.35;0.35;;;;;;;6.15;100.00;99970.31;5091929;28;20147;-58
2023/11/18 10:53:53;;;;;;;0.30;0.30;;;;;;;5.94;100.00;99965.91;5098296;28;20051;-58
2023/11/18 10:56:26;;;;;;;0.30;0.30;;;;;;;6.15;100.00;99961.53;5095945;28;20043;-59
2023/11/18 10:58:53;;;;;;;0.30;0.30;;;;;;;6.31;100.00;99947.88;5097236;27;20176;-59
2023/11/18 11:01:28;;;;;;;0.30;0.30;;;;;;;6.42;100.00;99951.84;5115055;27;20616;-59
2023/11/18 11:03:56;;;;;;;0.40;0.40;;;;;;;6.47;100.00;99944.91;5100514;27;20096;-59
2023/11/18 11:06:24;;;;;;;0.30;0.30;;;;;;;6.55;100.00;99943.91;5099887;28;20501;-59
2023/11/18 11:08:53;;;;;;;0.25;0.25;;;;;;;6.64;100.00;99950.72;5098147;28;20048;-59
2023/11/18 11:11:23;;;;;;;0.23;0.23;;;;;;;6.36;100.00;99932.13;5098245;28;20097;-58
2023/11/18 11:13:50;;;;;;;0.30;0.30;;;;;;;6.19;100.00;99921.00;5099585;28;20035;-59
2023/11/18 11:16:20;;;;;;;0.30;0.30;;;;;;;6.42;100.00;99919.91;5099553;28;20098;-59
2023/11/18 11:18:53;;;;;;;0.30;0.30;;;;;;;6.47;100.00;99917.47;5091178;28;20098;-59
2023/11/18 11:21:22;;;;;;;0.30;0.30;;;;;;;6.56;100.00;99921.56;5100053;28;20393;-59
2023/11/18 11:23:55;;;;;;;0.37;0.37;;;;;;;6.52;100.00;99915.03;5094547;28;20054;-59
2023/11/18 11:26:30;;;;;;;0.30;0.30;;;;;;;6.57;100.00;99923.22;5091511;28;20300;-59
2023/11/18 11:29:04;;;;;;;0.30;0.30;;;;;;;6.52;100.00;99917.69;5096873;28;20093;-59
2023/11/18 11:31:33;;;;;;;0.30;0.30;;;;;;;6.41;100.00;99902.25;5095341;27;20043;-59
2023/11/18 11:34:04;;;;;;;0.30;0.30;;;;;;;6.41;100.00;99891.59;5097913;28;20311;-59